Shanghai Express — DPCK — position and weather

sailwx.info

Track history (hours):
 
Tides and Currents Weather Stations Pressure Air Temp Water Temp Dewpoint Dewpoint Depression Visibility Wind Speed Wind Dir Waves Ship Positions

Shanghai Express

Last reported at 2017-Nov-18 00:00 UTC. Time now 2017-Nov-18 04:40 UTC.
Position N 38°18' E 154°36'.

Length 320.6 m; beam 42.8 m; draft 14.5 m.

Type: Ship. MMSI: 211367460.

Wind from 080 at 31 knots

Barometer 1023.5 mb
Air temperature 12.0 ° C
Visibility: greater than 5.4 NM
Dewpoint 9.3 ° C
Water temperature 18.0 ° C

Date/timePositionNaut miles runAvg speedWind from/ knotsBaromVisibWave heightAir tempDewpointWater temp
2017-Nov-18 00:00N 38°18' E 154°36'92620.6 080 / 311023.5 5.4 12.0 9.318.0
2017-Nov-16 03:00N 31°06' E 138°00'49120.5 320 / 21018.010.8 15.0 7.620.0
2017-Nov-15 03:00N 30°30' E 128°30'   360 / 201019.0 5.4 19.012.423.0
2017-Nov-12 00:59N 31°13' E 122°07'814.3
2017-Nov-12 00:28N 31°15' E 121°59'714.7
2017-Nov-12 00:00N 31°16' E 121°51'714.3
2017-Nov-11 23:29N 31°19' E 121°43'612.0
2017-Nov-11 22:58N 31°22' E 121°37'2 2.1
2017-Nov-11 22:12N 31°22' E 121°35'0 0.0
2017-Nov-11 21:53N 31°22' E 121°35'0 0.0
2017-Nov-11 18:46N 31°22' E 121°35'0 0.0
2017-Nov-11 18:22N 31°22' E 121°35'0 0.0
2017-Nov-11 16:51N 31°22' E 121°35'0 0.0
2017-Nov-11 16:15N 31°22' E 121°35'0 0.0
2017-Nov-11 15:51N 31°22' E 121°35'0 0.0
2017-Nov-11 15:27N 31°22' E 121°35'0 0.0
2017-Nov-11 14:54N 31°22' E 121°35'0 0.0
2017-Nov-11 14:26N 31°22' E 121°35'0 0.0
2017-Nov-11 13:59N 31°22' E 121°35'0 0.0
2017-Nov-11 13:29N 31°22' E 121°35'0 0.0
2017-Nov-11 12:53N 31°22' E 121°35'0 0.0
2017-Nov-11 12:25N 31°22' E 121°35'0 0.0
2017-Nov-11 11:37N 31°22' E 121°35'0 0.0
2017-Nov-11 11:22N 31°22' E 121°35'0 0.0
2017-Nov-11 09:47N 31°22' E 121°35'0 0.0
2017-Nov-11 00:57N 31°22' E 121°35'0 0.0
2017-Nov-10 23:02N 31°22' E 121°35'0 0.0
2017-Nov-10 22:53N 31°22' E 121°35'0 0.0
2017-Nov-10 22:22N 31°22' E 121°35'0 0.0
2017-Nov-10 21:58N 31°22' E 121°35'0 0.0
2017-Nov-10 21:28N 31°22' E 121°35'0 0.0
2017-Nov-10 20:43N 31°22' E 121°35'0 0.0
2017-Nov-10 20:13N 31°22' E 121°35'0 0.0
2017-Nov-10 20:00N 31°22' E 121°35'0 0.0
2017-Nov-10 18:51N 31°22' E 121°35'0 0.0
2017-Nov-10 18:25N 31°22' E 121°35'0 0.0
2017-Nov-10 17:57N 31°22' E 121°35'0 0.0
2017-Nov-10 17:27N 31°22' E 121°35'0 0.0
2017-Nov-10 15:53N 31°22' E 121°35'0 0.0
2017-Nov-10 15:26N 31°22' E 121°35'0 0.5
2017-Nov-10 15:00N 31°23' E 121°35'0 0.0
2017-Nov-10 09:59N 31°22' E 121°35'0 0.4
2017-Nov-10 09:14N 31°23' E 121°35'17 6.7
2017-Nov-10 06:44N 31°16' E 121°53'2 9.2
2017-Nov-10 06:29N 31°16' E 121°55'511.1
2017-Nov-10 06:00N 31°15' E 122°02'12 9.5
2017-Nov-10 04:43N 31°09' E 122°14'2 9.1
2017-Nov-10 04:30N 31°08' E 122°16'6 9.3
2017-Nov-10 03:54N 31°06' E 122°22'17 1.8
2017-Nov-09 18:23N 31°14' E 122°40'  
Track history (hours):
 
Tides and Currents Weather Stations Pressure Air Temp Water Temp Dewpoint Dewpoint Depression Visibility Wind Speed Wind Dir Waves Ship Positions

Shanghai Express

Last reported at 2017-Nov-18 00:00 UTC. Time now 2017-Nov-18 04:40 UTC.
Position N 38°18' E 154°36'.

Length 320.6 m; beam 42.8 m; draft 14.5 m.

Type: Ship. MMSI: 211367460.

Wind from 080 at 31 knots

Barometer 1023.5 mb
Air temperature 12.0 ° C
Visibility: greater than 5.4 NM
Dewpoint 9.3 ° C
Water temperature 18.0 ° C

Date/timePositionNaut miles runAvg speedWind from/ knotsBaromVisibWave heightAir tempDewpointWater temp
2017-Nov-18 00:00N 38°18' E 154°36'92620.6 080 / 311023.5 5.4 12.0 9.318.0
2017-Nov-16 03:00N 31°06' E 138°00'49120.5 320 / 21018.010.8 15.0 7.620.0
2017-Nov-15 03:00N 30°30' E 128°30'   360 / 201019.0 5.4 19.012.423.0
2017-Nov-12 00:59N 31°13' E 122°07'814.3
2017-Nov-12 00:28N 31°15' E 121°59'714.7
2017-Nov-12 00:00N 31°16' E 121°51'714.3
2017-Nov-11 23:29N 31°19' E 121°43'612.0
2017-Nov-11 22:58N 31°22' E 121°37'2 2.1
2017-Nov-11 22:12N 31°22' E 121°35'0 0.0
2017-Nov-11 21:53N 31°22' E 121°35'0 0.0
2017-Nov-11 18:46N 31°22' E 121°35'0 0.0
2017-Nov-11 18:22N 31°22' E 121°35'0 0.0
2017-Nov-11 16:51N 31°22' E 121°35'0 0.0
2017-Nov-11 16:15N 31°22' E 121°35'0 0.0
2017-Nov-11 15:51N 31°22' E 121°35'0 0.0
2017-Nov-11 15:27N 31°22' E 121°35'0 0.0
2017-Nov-11 14:54N 31°22' E 121°35'0 0.0
2017-Nov-11 14:26N 31°22' E 121°35'0 0.0
2017-Nov-11 13:59N 31°22' E 121°35'0 0.0
2017-Nov-11 13:29N 31°22' E 121°35'0 0.0
2017-Nov-11 12:53N 31°22' E 121°35'0 0.0
2017-Nov-11 12:25N 31°22' E 121°35'0 0.0
2017-Nov-11 11:37N 31°22' E 121°35'0 0.0
2017-Nov-11 11:22N 31°22' E 121°35'0 0.0
2017-Nov-11 09:47N 31°22' E 121°35'0 0.0
2017-Nov-11 00:57N 31°22' E 121°35'0 0.0
2017-Nov-10 23:02N 31°22' E 121°35'0 0.0
2017-Nov-10 22:53N 31°22' E 121°35'0 0.0
2017-Nov-10 22:22N 31°22' E 121°35'0 0.0
2017-Nov-10 21:58N 31°22' E 121°35'0 0.0
2017-Nov-10 21:28N 31°22' E 121°35'0 0.0
2017-Nov-10 20:43N 31°22' E 121°35'0 0.0
2017-Nov-10 20:13N 31°22' E 121°35'0 0.0
2017-Nov-10 20:00N 31°22' E 121°35'0 0.0
2017-Nov-10 18:51N 31°22' E 121°35'0 0.0
2017-Nov-10 18:25N 31°22' E 121°35'0 0.0
2017-Nov-10 17:57N 31°22' E 121°35'0 0.0
2017-Nov-10 17:27N 31°22' E 121°35'0 0.0
2017-Nov-10 15:53N 31°22' E 121°35'0 0.0
2017-Nov-10 15:26N 31°22' E 121°35'0 0.5
2017-Nov-10 15:00N 31°23' E 121°35'0 0.0
2017-Nov-10 09:59N 31°22' E 121°35'0 0.4
2017-Nov-10 09:14N 31°23' E 121°35'17 6.7
2017-Nov-10 06:44N 31°16' E 121°53'2 9.2
2017-Nov-10 06:29N 31°16' E 121°55'511.1
2017-Nov-10 06:00N 31°15' E 122°02'12 9.5
2017-Nov-10 04:43N 31°09' E 122°14'2 9.1
2017-Nov-10 04:30N 31°08' E 122°16'6 9.3
2017-Nov-10 03:54N 31°06' E 122°22'17 1.8
2017-Nov-09 18:23N 31°14' E 122°40'  

Dump ship's entire track history